Time;durP1;ratioP1;P1;durP2;ratioP2;P2;SDS_P1;SDS_P2;PMS_P1;PMS_P2;Temp;Humidity;BMP_temperature;BMP_pressure;BME280_temperature;BME280_humidity;BME280_pressure;Samples;Min_cycle;Max_cycle;Signal;HPM_P1;HPM_P2
2021/07/18 00:01:04;;;;;;;;;;;;;;;23.66;84.62;99871.70;1691669;83;20172;-78
2021/07/18 00:03:29;;;;;;;;;;;;;;;23.70;84.44;99872.55;1704080;83;21083;-79
2021/07/18 00:05:55;;;;;;;;;;;;;;;23.66;84.80;99878.45;1710781;82;20480;-78
2021/07/18 00:08:22;;;;;;;;;;;;;;;23.59;85.22;99880.49;1700817;82;20139;-78
2021/07/18 00:10:48;;;;;;;;;;;;;;;23.57;85.86;99881.80;1699401;82;20192;-87
2021/07/18 00:13:14;;;;;;;;;;;;;;;23.59;85.63;99888.58;1698706;82;20183;-79
2021/07/18 00:15:39;;;;;;;;;;;;;;;23.72;84.84;99879.30;1705568;83;21126;-86
2021/07/18 00:18:05;;;;;;;;;;;;;;;23.71;85.09;99871.47;1696095;83;20319;-86
2021/07/18 00:20:30;;;;;;;;;;;;;;;23.76;84.77;99874.25;1701512;83;20137;-78
2021/07/18 00:22:56;;;;;;;;;;;;;;;23.78;84.58;99868.87;1703461;82;20141;-78
2021/07/18 00:25:22;;;;;;;;;;;;;;;23.76;84.70;99872.90;1694543;83;20155;-82
2021/07/18 00:27:47;;;;;;;;;;;;;;;23.66;85.82;99860.09;1700336;83;20715;-87
2021/07/18 00:30:13;;;;;;;;;;;;;;;23.64;85.83;99858.98;1698574;82;20133;-82
2021/07/18 00:32:38;;;;;;;;;;;;;;;23.68;85.92;99852.58;1697787;83;20210;-80
2021/07/18 00:35:05;;;;;;;;;;;;;;;23.69;86.00;99855.54;1696485;82;20723;-80
2021/07/18 00:37:30;;;;;;;;;;;;;;;23.73;85.87;99853.18;1700257;82;20143;-80
2021/07/18 00:39:58;;;;;;;;;;;;;;;23.78;85.59;99851.34;1700005;82;21126;-79
2021/07/18 00:42:23;;;;;;;;;;;;;;;23.81;85.43;99850.84;1696865;82;20164;-88
2021/07/18 00:44:49;;;;;;;;;;;;;;;23.86;85.54;99852.81;1698441;83;20511;-78
2021/07/18 00:47:14;;;;;;;;;;;;;;;23.89;85.12;99846.92;1694624;83;20144;-77
2021/07/18 00:49:40;;;;;;;;;;;;;;;23.96;84.67;99846.20;1692098;83;20158;-89
2021/07/18 00:52:06;;;;;;;;;;;;;;;23.96;85.02;99844.85;1695847;82;21806;-81
2021/07/18 00:54:32;;;;;;;;;;;;;;;23.98;85.18;99840.55;1699322;83;20167;-78
2021/07/18 00:56:58;;;;;;;;;;;;;;;23.95;85.43;99845.91;1676603;83;20175;-78
2021/07/18 00:59:26;;;;;;;;;;;;;;;24.03;84.99;99841.95;1700569;83;20191;-78
2021/07/18 01:01:52;;;;;;;;;;;;;;;24.00;85.50;99839.77;1699038;82;20507;-79
2021/07/18 01:04:18;;;;;;;;;;;;;;;24.03;85.09;99849.23;1695825;82;21086;-81
2021/07/18 01:06:43;;;;;;;;;;;;;;;24.01;85.06;99850.30;1708050;82;20198;-77
2021/07/18 01:09:09;;;;;;;;;;;;;;;24.00;85.72;99856.78;1706786;82;20593;-78
2021/07/18 01:11:34;;;;;;;;;;;;;;;24.04;85.37;99856.27;1697948;83;20143;-79
2021/07/18 01:14:00;;;;;;;;;;;;;;;24.11;85.03;99859.57;1708408;82;20144;-82
2021/07/18 01:16:25;;;;;;;;;;;;;;;24.10;85.37;99862.81;1691675;83;20719;-79
2021/07/18 01:18:51;;;;;;;;;;;;;;;24.12;85.15;99858.52;1698520;82;20139;-79
2021/07/18 01:21:16;;;;;;;;;;;;;;;24.10;85.64;99860.62;1696396;83;20136;-79
2021/07/18 01:23:42;;;;;;;;;;;;;;;24.13;85.60;99865.52;1692178;83;20136;-79
2021/07/18 01:26:07;;;;;;;;;;;;;;;24.18;85.68;99861.55;1695640;83;20160;-92
2021/07/18 01:28:33;;;;;;;;;;;;;;;24.20;87.07;99862.10;1694799;83;20958;-82
2021/07/18 01:30:59;;;;;;;;;;;;;;;24.17;88.05;99866.66;1700698;82;20156;-80
2021/07/18 01:33:25;;;;;;;;;;;;;;;24.16;87.88;99854.22;1690015;83;20217;-79
2021/07/18 01:35:50;;;;;;;;;;;;;;;24.12;87.94;99864.72;1708373;83;20718;-78
2021/07/18 01:38:16;;;;;;;;;;;;;;;24.10;88.39;99861.47;1693697;82;20559;-82
2021/07/18 01:40:43;;;;;;;;;;;;;;;24.08;89.40;99862.77;1701258;82;21127;-85
2021/07/18 01:43:09;;;;;;;;;;;;;;;24.10;89.45;99872.25;1704961;83;20191;-79
2021/07/18 01:45:35;;;;;;;;;;;;;;;24.07;89.72;99870.61;1693508;82;20159;-79
2021/07/18 01:48:00;;;;;;;;;;;;;;;24.09;89.45;99870.61;1708843;82;20367;-81
2021/07/18 01:50:26;;;;;;;;;;;;;;;24.09;89.42;99869.81;1699488;82;20459;-79
2021/07/18 01:52:53;;;;;;;;;;;;;;;24.14;88.76;99863.11;1701165;82;21135;-81
2021/07/18 01:55:19;;;;;;;;;;;;;;;24.17;88.56;99865.30;1702446;83;20133;-80
2021/07/18 01:57:45;;;;;;;;;;;;;;;24.12;89.33;99878.75;1687764;82;20131;-85
2021/07/18 02:00:12;;;;;;;;;;;;;;;24.22;89.04;99883.44;1696490;83;20157;-78
2021/07/18 02:02:42;;;;;;;;;;;;;;;24.26;88.61;99881.33;1689731;82;20594;-85
2021/07/18 02:05:08;;;;;;;;;;;;;;;24.27;88.63;99883.48;1691230;83;21090;-79
2021/07/18 02:07:33;;;;;;;;;;;;;;;24.31;88.30;99879.22;1694657;82;20181;-81
2021/07/18 02:09:59;;;;;;;;;;;;;;;24.29;88.35;99882.17;1703109;82;20159;-79
2021/07/18 02:12:25;;;;;;;;;;;;;;;24.23;88.79;99884.53;1699316;83;20784;-79
2021/07/18 02:14:52;;;;;;;;;;;;;;;24.12;89.66;99879.55;1698728;82;20174;-84
2021/07/18 02:17:18;;;;;;;;;;;;;;;24.13;89.59;99874.45;1705385;83;20135;-80
2021/07/18 02:19:45;;;;;;;;;;;;;;;24.15;89.95;99866.91;1702599;83;20160;-79
2021/07/18 02:22:13;;;;;;;;;;;;;;;24.20;90.20;99874.24;1689541;83;20152;-79
2021/07/18 02:24:39;;;;;;;;;;;;;;;24.24;90.11;99874.55;1704537;82;20143;-87
2021/07/18 02:27:07;;;;;;;;;;;;;;;24.16;91.10;99876.64;1705552;82;20156;-82
2021/07/18 02:29:33;;;;;;;;;;;;;;;24.22;90.49;99873.45;1704113;82;21054;-77
2021/07/18 02:31:58;;;;;;;;;;;;;;;24.26;90.29;99865.14;1702077;82;20659;-80
2021/07/18 02:34:24;;;;;;;;;;;;;;;24.25;91.13;99876.19;1697737;82;20159;-84
2021/07/18 02:36:51;;;;;;;;;;;;;;;24.25;90.90;99875.64;1693970;83;20589;-77
2021/07/18 02:39:16;;;;;;;;;;;;;;;24.27;90.77;99877.57;1697157;82;20505;-80
2021/07/18 02:41:42;;;;;;;;;;;;;;;24.30;90.99;99869.48;1692348;82;21237;-79
2021/07/18 02:44:08;;;;;;;;;;;;;;;24.26;91.13;99871.87;1705038;82;20529;-82
2021/07/18 02:46:34;;;;;;;;;;;;;;;24.09;92.07;99856.33;1700377;82;20213;-79
2021/07/18 02:48:59;;;;;;;;;;;;;;;24.24;91.74;99867.28;1695163;83;20188;-78
2021/07/18 02:51:25;;;;;;;;;;;;;;;24.18;92.23;99865.59;1702820;82;20681;-80
2021/07/18 02:53:50;;;;;;;;;;;;;;;24.22;92.11;99869.94;1692751;82;21089;-92
2021/07/18 02:56:16;;;;;;;;;;;;;;;24.28;91.56;99867.58;1696218;83;20210;-91
2021/07/18 02:58:42;;;;;;;;;;;;;;;24.23;91.76;99868.34;1694302;83;20158;-78
2021/07/18 03:01:07;;;;;;;;;;;;;;;24.27;91.76;99863.24;1692915;83;20127;-84
2021/07/18 03:03:33;;;;;;;;;;;;;;;24.28;91.88;99869.73;1702140;83;20464;-80
2021/07/18 03:05:58;;;;;;;;;;;;;;;24.38;91.48;99867.16;1702763;82;21057;-77
2021/07/18 03:08:24;;;;;;;;;;;;;;;24.41;91.30;99869.05;1698544;83;20143;-77
2021/07/18 03:10:49;;;;;;;;;;;;;;;24.46;91.07;99866.42;1697946;82;20142;-77
2021/07/18 03:13:15;;;;;;;;;;;;;;;24.42;91.06;99867.98;1697817;82;20127;-79
2021/07/18 03:15:40;;;;;;;;;;;;;;;24.46;90.87;99866.42;1695996;82;20450;-80
2021/07/18 03:18:08;;;;;;;;;;;;;;;24.52;90.56;99878.90;1700609;83;21173;-82
2021/07/18 03:20:33;;;;;;;;;;;;;;;24.53;90.53;99885.91;1691587;83;20239;-78
2021/07/18 03:22:59;;;;;;;;;;;;;;;24.55;90.15;99881.09;1698278;82;20190;-77
2021/07/18 03:25:27;;;;;;;;;;;;;;;24.62;89.80;99891.70;1692272;82;20739;-81
2021/07/18 03:27:53;;;;;;;;;;;;;;;24.59;90.04;99887.62;1704961;82;20196;-77
2021/07/18 03:30:20;;;;;;;;;;;;;;;24.60;90.08;99886.55;1699704;83;21128;-77
2021/07/18 03:32:45;;;;;;;;;;;;;;;24.59;90.38;99893.02;1697373;83;20218;-88
2021/07/18 03:35:13;;;;;;;;;;;;;;;24.65;90.09;99891.99;1705490;82;20146;-77
2021/07/18 03:37:39;;;;;;;;;;;;;;;24.64;90.22;99890.39;1687532;82;20203;-81
2021/07/18 03:40:07;;;;;;;;;;;;;;;24.73;89.70;99891.55;1696860;83;20308;-77
2021/07/18 03:42:33;;;;;;;;;;;;;;;24.64;90.17;99898.48;1692689;82;21233;-77
2021/07/18 03:44:59;;;;;;;;;;;;;;;24.62;90.74;99898.45;1691841;83;20166;-77
2021/07/18 03:47:24;;;;;;;;;;;;;;;24.61;90.88;99905.75;1690878;83;20156;-81
2021/07/18 03:49:50;;;;;;;;;;;;;;;24.66;90.51;99899.03;1692154;82;20569;-80
2021/07/18 03:52:15;;;;;;;;;;;;;;;24.73;90.02;99899.66;1709228;82;20171;-82
2021/07/18 03:54:41;;;;;;;;;;;;;;;24.69;90.53;99907.98;1698766;82;21088;-78
2021/07/18 03:57:06;;;;;;;;;;;;;;;24.69;90.87;99907.98;1699235;83;20162;-90
2021/07/18 03:59:32;;;;;;;;;;;;;;;24.81;90.07;99913.73;1697569;82;20148;-81
2021/07/18 04:01:58;;;;;;;;;;;;;;;24.72;90.70;99915.56;1692100;82;20187;-77
2021/07/18 04:04:23;;;;;;;;;;;;;;;24.70;90.55;99908.27;1697558;83;20511;-77
2021/07/18 04:06:49;;;;;;;;;;;;;;;24.68;90.28;99917.13;1689076;83;21140;-77
2021/07/18 04:09:14;;;;;;;;;;;;;;;24.76;89.85;99919.11;1693674;82;20212;-77
2021/07/18 04:11:40;;;;;;;;;;;;;;;24.75;89.77;99921.52;1698246;82;20140;-76
2021/07/18 04:14:06;;;;;;;;;;;;;;;24.80;89.32;99922.94;1703544;83;20818;-80
2021/07/18 04:16:31;;;;;;;;;;;;;;;24.80;89.20;99916.19;1706900;83;20119;-77
2021/07/18 04:18:57;;;;;;;;;;;;;;;24.77;88.99;99912.64;1699671;83;21099;-77
2021/07/18 04:21:22;;;;;;;;;;;;;;;24.82;88.64;99914.83;1703576;83;20158;-78
2021/07/18 04:23:48;;;;;;;;;;;;;;;24.85;88.58;99918.92;1690525;83;20194;-77
2021/07/18 04:26:14;;;;;;;;;;;;;;;24.86;88.46;99917.83;1702894;82;20811;-76
2021/07/18 04:28:40;;;;;;;;;;;;;;;24.97;87.81;99919.56;1694521;82;20170;-78
2021/07/18 04:31:05;;;;;;;;;;;;;;;24.93;87.99;99911.69;1703477;82;21072;-90
2021/07/18 04:33:31;;;;;;;;;;;;;;;24.80;88.80;99909.43;1697511;83;20167;-77
2021/07/18 04:35:56;;;;;;;;;;;;;;;24.84;88.40;99909.17;1702547;83;20146;-77
2021/07/18 04:38:22;;;;;;;;;;;;;;;24.80;88.42;99914.83;1693445;82;20167;-76
2021/07/18 04:40:48;;;;;;;;;;;;;;;24.83;87.86;99914.32;1707391;82;20253;-77
2021/07/18 04:43:13;;;;;;;;;;;;;;;24.80;87.44;99914.83;1692930;83;21821;-80
2021/07/18 04:45:39;;;;;;;;;;;;;;;24.82;87.26;99915.38;1690787;83;20362;-77
2021/07/18 04:48:05;;;;;;;;;;;;;;;24.87;87.09;99918.12;1692653;83;20647;-77
2021/07/18 04:50:31;;;;;;;;;;;;;;;24.84;86.92;99911.88;1693357;83;20164;-94
2021/07/18 04:52:58;;;;;;;;;;;;;;;24.69;87.19;99913.38;1692655;83;20150;-78
2021/07/18 04:55:23;;;;;;;;;;;;;;;24.65;87.16;99913.59;1695179;82;21055;-80
2021/07/18 04:57:49;;;;;;;;;;;;;;;24.76;86.95;99908.30;1705919;82;21080;-76
2021/07/18 05:00:16;;;;;;;;;;;;;;;24.78;86.76;99908.85;1686557;83;20177;-77
2021/07/18 05:02:42;;;;;;;;;;;;;;;24.84;86.26;99907.83;1705078;82;20871;-78
2021/07/18 05:05:12;;;;;;;;;;;;;;;24.87;86.03;99908.66;1702377;82;20139;-77
2021/07/18 05:07:56;;;;;;;;;;;;;;;24.87;86.16;99910.02;1699092;82;21119;-77
2021/07/18 05:10:23;;;;;;;;;;;;;;;24.95;85.80;99906.83;1694870;83;20468;-83
2021/07/18 05:12:50;;;;;;;;;;;;;;;24.90;85.71;99918.41;1703690;81;20183;-78
2021/07/18 05:15:16;;;;;;;;;;;;;;;24.92;85.55;99915.45;1703135;83;20175;-91
2021/07/18 05:17:42;;;;;;;;;;;;;;;25.08;85.33;99915.86;1706013;82;20155;-80
2021/07/18 05:20:08;;;;;;;;;;;;;;;24.97;87.22;99911.98;1698176;82;21815;-80
2021/07/18 05:22:34;;;;;;;;;;;;;;;24.95;87.49;99910.08;1694100;82;20185;-83
2021/07/18 05:25:00;;;;;;;;;;;;;;;24.99;87.33;99917.41;1703152;82;20215;-81
2021/07/18 05:27:26;;;;;;;;;;;;;;;24.93;87.80;99911.69;1701021;83;20156;-82
2021/07/18 05:29:51;;;;;;;;;;;;;;;24.96;86.80;99915.77;1694848;82;20476;-77
2021/07/18 05:32:17;;;;;;;;;;;;;;;25.04;86.66;99916.09;1696991;83;21161;-80
2021/07/18 05:34:43;;;;;;;;;;;;;;;24.96;87.96;99915.77;1699017;83;20153;-77
2021/07/18 05:37:08;;;;;;;;;;;;;;;24.84;88.97;99915.93;1706723;82;20865;-77
2021/07/18 05:39:34;;;;;;;;;;;;;;;24.82;89.30;99914.83;1706574;82;20862;-79
2021/07/18 05:41:59;;;;;;;;;;;;;;;24.78;89.02;99915.09;1705937;82;21314;-78
2021/07/18 05:44:26;;;;;;;;;;;;;;;24.82;89.48;99920.78;1702655;82;21087;-85
2021/07/18 05:46:51;;;;;;;;;;;;;;;24.93;87.92;99925.20;1697865;82;20532;-81
2021/07/18 05:49:17;;;;;;;;;;;;;;;24.97;87.72;99928.19;1702595;82;20158;-77
2021/07/18 05:51:44;;;;;;;;;;;;;;;24.88;88.42;99927.86;1693063;82;20546;-85
2021/07/18 05:54:09;;;;;;;;;;;;;;;24.99;88.13;99924.16;1707120;83;20143;-77
2021/07/18 05:56:35;;;;;;;;;;;;;;;24.94;88.58;99927.35;1698274;82;21015;-77
2021/07/18 05:59:01;;;;;;;;;;;;;;;24.83;89.47;99930.52;1698537;82;20151;-79
2021/07/18 06:01:26;;;;;;;;;;;;;;;24.90;89.09;99925.70;1706785;83;20137;-78
2021/07/18 06:03:52;;;;;;;;;;;;;;;24.96;88.81;99923.33;1694295;83;20693;-77
2021/07/18 06:06:17;;;;;;;;;;;;;;;25.03;88.65;99929.34;1703566;82;20211;-78
2021/07/18 06:08:45;;;;;;;;;;;;;;;25.04;88.30;99924.20;1695195;83;21502;-85
2021/07/18 06:11:10;;;;;;;;;;;;;;;25.09;87.93;99927.48;1663202;83;20755;-80
2021/07/18 06:13:36;;;;;;;;;;;;;;;25.20;86.67;99921.62;1688061;82;20236;-76
2021/07/18 06:16:01;;;;;;;;;;;;;;;25.16;84.25;99924.03;1708128;83;20466;-81
2021/07/18 06:18:27;;;;;;;;;;;;;;;25.21;83.84;99915.16;1697189;82;20154;-76
2021/07/18 06:20:53;;;;;;;;;;;;;;;25.35;83.67;99913.66;1709664;82;21144;-77
2021/07/18 06:23:18;;;;;;;;;;;;;;;25.36;83.85;99908.53;1695616;83;21093;-79
2021/07/18 06:25:44;;;;;;;;;;;;;;;25.36;83.74;99907.18;1688872;83;20149;-76
2021/07/18 06:28:10;;;;;;;;;;;;;;;25.15;85.32;99912.13;1702215;82;20136;-79
2021/07/18 06:30:35;;;;;;;;;;;;;;;25.09;85.79;99921.56;1708979;83;20323;-86
2021/07/18 06:33:01;;;;;;;;;;;;;;;25.03;86.05;99923.94;1693551;82;21262;-80
2021/07/18 06:35:27;;;;;;;;;;;;;;;25.13;85.91;99912.94;1709566;83;20457;-85
2021/07/18 06:37:52;;;;;;;;;;;;;;;25.15;85.82;99911.58;1699913;83;20179;-77
2021/07/18 06:40:18;;;;;;;;;;;;;;;25.30;85.34;99908.22;1705400;82;20672;-77
2021/07/18 06:42:44;;;;;;;;;;;;;;;25.36;85.11;99915.29;1699678;82;20231;-76
2021/07/18 06:45:10;;;;;;;;;;;;;;;25.31;83.91;99920.67;1698542;83;20611;-80
2021/07/18 06:47:35;;;;;;;;;;;;;;;25.24;84.03;99918.69;1695161;83;20217;-84
2021/07/18 06:50:01;;;;;;;;;;;;;;;25.24;83.12;99918.69;1693586;83;20158;-85
2021/07/18 06:52:27;;;;;;;;;;;;;;;25.25;83.19;99914.92;1691342;83;20740;-76
2021/07/18 06:54:52;;;;;;;;;;;;;;;25.30;82.87;99914.17;1698447;82;20143;-87
2021/07/18 06:57:19;;;;;;;;;;;;;;;25.41;82.73;99918.02;1689723;83;21133;-80
2021/07/18 06:59:48;;;;;;;;;;;;;;;25.39;81.47;99926.94;1696925;83;20128;-89
2021/07/18 07:02:14;;;;;;;;;;;;;;;25.33;80.64;99925.82;1693923;83;20518;-77
2021/07/18 07:04:40;;;;;;;;;;;;;;;25.34;81.44;99919.31;1696978;82;21071;-86
2021/07/18 07:07:05;;;;;;;;;;;;;;;25.59;81.28;99922.20;1703748;82;20135;-89
2021/07/18 07:09:31;;;;;;;;;;;;;;;25.61;81.14;99921.94;1697850;82;21000;-82
2021/07/18 07:11:56;;;;;;;;;;;;;;;25.74;80.92;99924.16;1701437;83;20161;-85
2021/07/18 07:14:22;;;;;;;;;;;;;;;25.87;80.68;99922.05;1699124;82;20479;-77
2021/07/18 07:16:48;;;;;;;;;;;;;;;25.83;80.53;99920.97;1709194;83;20234;-82
2021/07/18 07:19:14;;;;;;;;;;;;;;;25.96;79.36;99929.42;1706295;83;20476;-81
2021/07/18 07:21:39;;;;;;;;;;;;;;;25.71;78.82;99943.61;1704794;82;21112;-83
2021/07/18 07:24:05;;;;;;;;;;;;;;;25.74;78.44;99928.21;1702573;82;20165;-81
2021/07/18 07:26:31;;;;;;;;;;;;;;;25.72;78.20;99939.84;1697695;82;20241;-89
2021/07/18 07:28:57;;;;;;;;;;;;;;;25.73;78.36;99938.77;1692010;83;20129;-78
2021/07/18 07:31:22;;;;;;;;;;;;;;;25.91;78.16;99935.34;1701306;83;20138;-78
2021/07/18 07:33:48;;;;;;;;;;;;;;;25.96;77.71;99945.66;1687906;83;21097;-78
2021/07/18 07:36:15;;;;;;;;;;;;;;;25.95;77.26;99942.66;1697860;82;20233;-82
2021/07/18 07:38:41;;;;;;;;;;;;;;;25.68;78.46;99943.33;1698582;83;20138;-79
2021/07/18 07:41:06;;;;;;;;;;;;;;;25.75;78.51;99950.13;1701580;83;20778;-89
2021/07/18 07:43:32;;;;;;;;;;;;;;;25.82;78.44;99942.33;1694354;82;20178;-81
2021/07/18 07:45:57;;;;;;;;;;;;;;;25.59;79.40;99944.34;1702862;83;21159;-82
2021/07/18 07:48:23;;;;;;;;;;;;;;;25.38;81.12;99945.57;1694402;83;20159;-84
2021/07/18 07:50:50;;;;;;;;;;;;;;;25.33;82.29;99950.14;1693602;83;20172;-80
2021/07/18 07:53:15;;;;;;;;;;;;;;;25.29;82.18;99948.48;1699975;82;20217;-78
2021/07/18 07:55:41;;;;;;;;;;;;;;;25.30;82.37;99948.77;1692326;83;20150;-78
2021/07/18 07:58:07;;;;;;;;;;;;;;;25.20;82.77;99960.80;1708242;83;21845;-83
2021/07/18 08:00:33;;;;;;;;;;;;;;;25.23;83.27;99961.64;1693754;82;20156;-79
2021/07/18 08:02:58;;;;;;;;;;;;;;;25.36;83.12;99955.84;1699645;82;20533;-86
2021/07/18 08:05:24;;;;;;;;;;;;;;;25.31;82.39;99963.92;1693021;83;20182;-79
2021/07/18 08:07:49;;;;;;;;;;;;;;;25.08;83.03;99950.99;1697490;82;20142;-76
2021/07/18 08:10:17;;;;;;;;;;;;;;;24.92;83.93;99958.67;1701848;82;20950;-88
2021/07/18 08:12:43;;;;;;;;;;;;;;;24.94;83.40;99964.66;1698313;82;20171;-78
2021/07/18 08:15:09;;;;;;;;;;;;;;;24.98;83.22;99957.65;1705529;83;20244;-90
2021/07/18 08:17:35;;;;;;;;;;;;;;;25.11;82.57;99956.94;1696364;83;20202;-77
2021/07/18 08:20:03;;;;;;;;;;;;;;;25.20;82.02;99960.29;1704150;83;20209;-77
2021/07/18 08:22:29;;;;;;;;;;;;;;;25.30;81.27;99955.52;1693893;82;21937;-78
2021/07/18 08:24:55;;;;;;;;;;;;;;;25.30;80.66;99959.58;1685091;83;20559;-77
2021/07/18 08:27:21;;;;;;;;;;;;;;;25.43;80.29;99953.73;1679739;84;20262;-83
2021/07/18 08:29:48;;;;;;;;;;;;;;;25.50;80.21;99958.91;1710944;82;20838;-88
2021/07/18 08:32:13;;;;;;;;;;;;;;;25.42;80.52;99964.81;1704323;82;20153;-77
2021/07/18 08:34:40;;;;;;;;;;;;;;;25.59;80.20;99958.70;1709350;83;21098;-78
2021/07/18 08:37:05;;;;;;;;;;;;;;;25.78;78.83;99963.69;1715373;82;20183;-86
2021/07/18 08:39:31;;;;;;;;;;;;;;;25.73;78.63;99967.17;1716138;83;20153;-83
2021/07/18 08:41:57;;;;;;;;;;;;;;;25.91;77.57;99964.55;1716948;82;20225;-78
2021/07/18 08:44:22;;;;;;;;;;;;;;;25.88;77.54;99961.56;1714025;83;20256;-80
2021/07/18 08:46:48;;;;;;;;;;;;;;;26.03;77.36;99961.67;1717650;82;21101;-81
2021/07/18 08:49:15;;;;;;;;;;;;;;;26.07;77.14;99961.95;1705236;82;20368;-82
2021/07/18 08:51:41;;;;;;;;;;;;;;;25.84;77.96;99967.21;1713292;82;20167;-81
2021/07/18 08:54:09;;;;;;;;;;;;;;;25.86;77.53;99963.73;1710539;82;20118;-81
2021/07/18 08:56:36;;;;;;;;;;;;;;;25.95;78.12;99970.27;1715944;83;20150;-81
2021/07/18 08:59:05;;;;;;;;;;;;;;;25.95;78.51;99963.50;1709270;82;21052;-92
2021/07/18 09:01:32;;;;;;;;;;;;;;;26.08;77.36;99957.63;1704957;82;20508;-78
2021/07/18 09:03:57;;;;;;;;;;;;;;;25.88;77.17;99966.42;1708877;82;20574;-79
2021/07/18 09:06:27;;;;;;;;;;;;;;;26.03;77.35;99967.09;1715352;82;20153;-80
2021/07/18 09:08:52;;;;;;;;;;;;;;;26.07;76.64;99962.78;1712745;82;20176;-82
2021/07/18 09:11:23;;;;;;;;;;;;;;;26.09;76.96;99965.23;1707204;82;21036;-81
2021/07/18 09:14:05;;;;;;;;;;;;;;;26.14;76.78;99971.45;1720625;81;20452;-80
2021/07/18 09:16:41;;;;;;;;;;;;;;;26.02;76.77;99970.05;1697761;83;20214;-77
2021/07/18 09:19:26;;;;;;;;;;;;;;;26.01;76.87;99964.36;1662193;82;21550;-91
2021/07/18 09:22:01;;;;;;;;;;;;;;;26.06;77.07;99967.11;1705642;82;20155;-82
2021/07/18 09:24:28;;;;;;;;;;;;;;;25.98;76.71;99974.64;1701919;82;21160;-80
2021/07/18 09:27:12;;;;;;;;;;;;;;;25.91;76.51;99969.16;1706187;82;20407;-80
2021/07/18 09:29:44;;;;;;;;;;;;;;;26.18;75.80;99970.92;1710058;82;20443;-80
2021/07/18 09:32:12;;;;;;;;;;;;;;;26.30;75.27;99972.88;1714047;82;20628;-80
2021/07/18 09:34:41;;;;;;;;;;;;;;;26.42;74.27;99976.16;1710656;82;20253;-79
2021/07/18 09:37:13;;;;;;;;;;;;;;;26.27;75.09;99973.41;1707867;82;21105;-87
2021/07/18 09:39:47;;;;;;;;;;;;;;;26.38;74.65;99973.70;1712201;83;20209;-82
2021/07/18 09:42:25;;;;;;;;;;;;;;;26.26;74.94;99978.56;1706348;82;20246;-83
2021/07/18 09:44:53;;;;;;;;;;;;;;;26.12;74.54;99977.68;1695223;82;20179;-85
2021/07/18 09:47:19;;;;;;;;;;;;;;;26.41;74.01;99973.17;1701705;82;20179;-86
2021/07/18 09:49:45;;;;;;;;;;;;;;;26.62;73.79;99970.55;1705833;82;21117;-79
2021/07/18 09:52:18;;;;;;;;;;;;;;;26.68;73.35;99973.02;1698981;82;20142;-85
2021/07/18 09:54:46;;;;;;;;;;;;;;;26.63;72.89;99964.03;1708341;82;20178;-80
2021/07/18 09:57:29;;;;;;;;;;;;;;;26.70;73.36;99964.63;1698022;82;20179;-81
2021/07/18 09:59:55;;;;;;;;;;;;;;;26.67;73.06;99974.64;1705609;82;20217;-83
2021/07/18 10:02:27;;;;;;;;;;;;;;;26.55;73.22;99971.33;1712211;82;21058;-84
2021/07/18 10:04:54;;;;;;;;;;;;;;;26.68;72.57;99964.09;1712642;82;20484;-82
2021/07/18 10:07:22;;;;;;;;;;;;;;;26.62;73.11;99970.55;1710097;82;20155;-79
2021/07/18 10:09:49;;;;;;;;;;;;;;;26.67;72.41;99965.16;1705021;82;20175;-82
2021/07/18 10:12:16;;;;;;;;;;;;;;;26.62;72.80;99964.58;1705322;83;20183;-83
2021/07/18 10:14:42;;;;;;;;;;;;;;;26.65;72.77;99967.30;1706144;82;20991;-81
2021/07/18 10:17:09;;;;;;;;;;;;;;;26.68;72.50;99965.45;1704470;83;20494;-77
2021/07/18 10:19:35;;;;;;;;;;;;;;;26.78;72.68;99964.09;1703366;82;20116;-76
2021/07/18 10:22:00;;;;;;;;;;;;;;;26.96;71.81;99953.83;1715434;82;20721;-77
2021/07/18 10:24:29;;;;;;;;;;;;;;;26.89;71.52;99964.11;1713192;82;36086;-77
2021/07/18 10:26:57;;;;;;;;;;;;;;;27.01;72.03;99959.25;1707959;82;21293;-88
2021/07/18 10:29:22;;;;;;;;;;;;;;;26.99;71.52;99955.45;1714754;82;20150;-80
2021/07/18 10:31:50;;;;;;;;;;;;;;;26.93;71.25;99962.50;1706727;82;20154;-82
2021/07/18 10:34:17;;;;;;;;;;;;;;;26.98;71.08;99961.14;1712860;82;20191;-79
2021/07/18 10:36:42;;;;;;;;;;;;;;;27.03;71.07;99951.65;1718803;83;20151;-78
2021/07/18 10:39:33;;;;;;;;;;;;;;;27.22;70.20;99954.10;1712782;82;21133;-82
2021/07/18 10:41:57;;;;;;;;;;;;;;;27.19;70.04;99955.16;1710151;82;20130;-80
2021/07/18 10:44:22;;;;;;;;;;;;;;;27.39;69.49;99957.08;1706474;82;20191;-79
2021/07/18 10:46:50;;;;;;;;;;;;;;;27.32;69.53;99961.98;1712190;82;20729;-86
2021/07/18 10:49:16;;;;;;;;;;;;;;;27.02;71.24;99959.53;1704699;82;20159;-90
2021/07/18 10:51:49;;;;;;;;;;;;;;;27.00;71.43;99950.84;1705139;82;21085;-82
2021/07/18 10:54:19;;;;;;;;;;;;;;;27.28;69.73;99953.53;1710175;82;21008;-82
2021/07/18 10:56:54;;;;;;;;;;;;;;;27.39;68.21;99951.66;1707952;82;20138;-78
2021/07/18 10:59:36;;;;;;;;;;;;;;;27.35;68.59;99950.59;1713582;82;20151;-80
2021/07/18 11:02:08;;;;;;;;;;;;;;;27.48;68.47;99947.31;1702898;82;20630;-78
2021/07/18 11:04:48;;;;;;;;;;;;;;;27.65;67.69;99935.34;1720068;82;20075;-80
2021/07/18 11:07:25;;;;;;;;;;;;;;;27.54;66.69;99948.92;1693546;82;20161;-79
2021/07/18 11:10:00;;;;;;;;;;;;;;;27.63;66.94;99945.67;1717481;82;20131;-86
2021/07/18 11:12:36;;;;;;;;;;;;;;;27.55;67.95;99932.93;1706580;82;20130;-86
2021/07/18 11:15:19;;;;;;;;;;;;;;;27.69;67.54;99941.86;1700692;82;20210;-84
2021/07/18 11:18:02;;;;;;;;;;;;;;;27.60;66.20;99935.38;1708533;82;21036;-87
2021/07/18 11:20:38;;;;;;;;;;;;;;;27.66;66.50;99938.34;1710330;83;20150;-79
2021/07/18 11:23:05;;;;;;;;;;;;;;;27.73;66.05;99918.50;1695576;83;20186;-80
2021/07/18 11:25:46;;;;;;;;;;;;;;;27.73;66.69;99927.99;1672651;82;20298;-81
2021/07/18 11:28:38;;;;;;;;;;;;;;;27.80;66.36;99921.73;1674676;84;20177;-79
2021/07/18 11:31:13;;;;;;;;;;;;;;;27.86;64.34;99928.77;1676830;82;20121;-79
2021/07/18 11:34:06;;;;;;;;;;;;;;;27.94;64.35;99920.05;1701785;82;20202;-79
2021/07/18 11:36:35;;;;;;;;;;;;;;;27.93;63.20;99931.98;1701909;82;20306;-86
2021/07/18 11:39:11;;;;;;;;;;;;;;;27.99;61.98;99920.61;1704863;82;20876;-78
2021/07/18 11:41:37;;;;;;;;;;;;;;;27.98;61.90;99914.09;1703631;82;20163;-79
2021/07/18 11:44:03;;;;;;;;;;;;;;;28.02;62.13;99921.96;1704302;82;21845;-79
2021/07/18 11:46:37;;;;;;;;;;;;;;;27.87;62.54;99932.29;1710592;82;20273;-82
2021/07/18 11:49:04;;;;;;;;;;;;;;;27.81;62.53;99917.95;1700918;83;20099;-80
2021/07/18 11:51:32;;;;;;;;;;;;;;;27.69;62.97;99919.60;1705273;82;20226;-86
2021/07/18 11:53:59;;;;;;;;;;;;;;;27.92;62.89;99914.09;1702123;82;20158;-80
2021/07/18 11:56:27;;;;;;;;;;;;;;;27.90;62.64;99905.40;1702752;82;22030;-79
2021/07/18 11:58:55;;;;;;;;;;;;;;;28.08;62.65;99911.34;1707081;83;20227;-80
2021/07/18 12:01:27;;;;;;;;;;;;;;;28.32;61.35;99899.81;1706030;82;20206;-80
2021/07/18 12:03:53;;;;;;;;;;;;;;;28.30;61.02;99904.97;1693492;83;20453;-80
2021/07/18 12:06:22;;;;;;;;;;;;;;;28.42;60.15;99921.48;1707129;83;20606;-79
2021/07/18 12:08:48;;;;;;;;;;;;;;;28.38;59.18;99925.85;1704129;82;21073;-82
2021/07/18 12:11:13;;;;;;;;;;;;;;;28.32;59.15;99910.67;1694295;82;21150;-77
2021/07/18 12:13:44;;;;;;;;;;;;;;;28.30;58.77;99903.61;1711075;82;20366;-83
2021/07/18 12:16:09;;;;;;;;;;;;;;;28.29;58.71;99900.65;1714534;83;20177;-81
2021/07/18 12:18:46;;;;;;;;;;;;;;;28.21;57.91;99897.14;1705942;82;20154;-80
2021/07/18 12:21:20;;;;;;;;;;;;;;;28.35;58.30;99899.25;1699503;82;21008;-81
2021/07/18 12:24:06;;;;;;;;;;;;;;;28.36;58.20;99904.41;1703048;82;20209;-79
2021/07/18 12:26:32;;;;;;;;;;;;;;;28.52;57.44;99887.45;1696768;82;20179;-80
2021/07/18 12:29:04;;;;;;;;;;;;;;;28.52;56.92;99898.31;1704961;82;20119;-82
2021/07/18 12:31:30;;;;;;;;;;;;;;;28.37;56.19;99897.06;1715060;82;20119;-87
2021/07/18 12:33:56;;;;;;;;;;;;;;;28.35;55.87;99885.67;1681914;82;21104;-82
2021/07/18 12:36:24;;;;;;;;;;;;;;;28.56;55.54;99881.73;1698357;82;20128;-81
2021/07/18 12:38:49;;;;;;;;;;;;;;;28.68;54.92;99888.73;1704708;82;20137;-84
2021/07/18 12:41:16;;;;;;;;;;;;;;;28.88;54.20;99885.84;1707954;82;20118;-84
2021/07/18 12:43:42;;;;;;;;;;;;;;;28.85;53.38;99880.97;1692949;82;20172;-81
2021/07/18 12:46:11;;;;;;;;;;;;;;;29.08;53.35;99873.17;1703151;82;21108;-83
2021/07/18 12:48:39;;;;;;;;;;;;;;;29.03;52.94;99878.11;1701853;82;20144;-88